sensor_id;sensor_type;location;lat;lon;timestamp;P1;durP1;ratioP1;P2;durP2;ratioP2
6463;SDS011;3265;42.694;23.282;2023-05-10T00:00:55;6.87;;;5.60;;
6463;SDS011;3265;42.694;23.282;2023-05-10T00:03:22;7.00;;;5.40;;
6463;SDS011;3265;42.694;23.282;2023-05-10T00:05:50;7.17;;;5.70;;
6463;SDS011;3265;42.694;23.282;2023-05-10T00:08:17;6.77;;;5.97;;
6463;SDS011;3265;42.694;23.282;2023-05-10T00:10:44;8.23;;;5.70;;
6463;SDS011;3265;42.694;23.282;2023-05-10T00:13:11;8.57;;;5.90;;
6463;SDS011;3265;42.694;23.282;2023-05-10T00:15:37;8.37;;;6.60;;
6463;SDS011;3265;42.694;23.282;2023-05-10T00:18:04;7.60;;;6.13;;
6463;SDS011;3265;42.694;23.282;2023-05-10T00:20:31;8.07;;;6.53;;
6463;SDS011;3265;42.694;23.282;2023-05-10T00:22:59;9.23;;;6.97;;
6463;SDS011;3265;42.694;23.282;2023-05-10T00:25:26;8.57;;;6.57;;
6463;SDS011;3265;42.694;23.282;2023-05-10T00:27:53;8.33;;;6.70;;
6463;SDS011;3265;42.694;23.282;2023-05-10T00:30:20;7.30;;;6.50;;
6463;SDS011;3265;42.694;23.282;2023-05-10T00:32:47;9.27;;;7.60;;
6463;SDS011;3265;42.694;23.282;2023-05-10T00:35:14;8.83;;;7.57;;
6463;SDS011;3265;42.694;23.282;2023-05-10T00:37:41;10.03;;;7.87;;
6463;SDS011;3265;42.694;23.282;2023-05-10T00:40:10;12.33;;;8.43;;
6463;SDS011;3265;42.694;23.282;2023-05-10T00:42:39;10.13;;;8.03;;
6463;SDS011;3265;42.694;23.282;2023-05-10T00:45:06;10.10;;;7.90;;
6463;SDS011;3265;42.694;23.282;2023-05-10T00:47:33;10.60;;;8.60;;
6463;SDS011;3265;42.694;23.282;2023-05-10T00:50:01;9.47;;;7.93;;
6463;SDS011;3265;42.694;23.282;2023-05-10T00:52:27;9.80;;;8.00;;
6463;SDS011;3265;42.694;23.282;2023-05-10T00:54:55;15.67;;;8.70;;
6463;SDS011;3265;42.694;23.282;2023-05-10T00:57:23;9.97;;;8.67;;
6463;SDS011;3265;42.694;23.282;2023-05-10T00:59:50;11.97;;;9.07;;
6463;SDS011;3265;42.694;23.282;2023-05-10T01:02:18;10.00;;;8.43;;
6463;SDS011;3265;42.694;23.282;2023-05-10T01:04:45;13.70;;;9.10;;
6463;SDS011;3265;42.694;23.282;2023-05-10T01:07:12;11.83;;;8.53;;
6463;SDS011;3265;42.694;23.282;2023-05-10T01:09:39;10.90;;;8.90;;
6463;SDS011;3265;42.694;23.282;2023-05-10T01:12:06;11.13;;;9.10;;
6463;SDS011;3265;42.694;23.282;2023-05-10T01:14:35;13.97;;;9.63;;
6463;SDS011;3265;42.694;23.282;2023-05-10T01:17:02;11.07;;;9.00;;
6463;SDS011;3265;42.694;23.282;2023-05-10T01:19:31;11.53;;;9.27;;
6463;SDS011;3265;42.694;23.282;2023-05-10T01:22:04;11.67;;;8.53;;
6463;SDS011;3265;42.694;23.282;2023-05-10T01:31:11;28.27;;;22.63;;
6463;SDS011;3265;42.694;23.282;2023-05-10T01:33:58;9.90;;;8.80;;
6463;SDS011;3265;42.694;23.282;2023-05-10T01:36:30;9.87;;;8.67;;
6463;SDS011;3265;42.694;23.282;2023-05-10T01:39:01;11.27;;;8.40;;
6463;SDS011;3265;42.694;23.282;2023-05-10T01:41:35;9.57;;;8.00;;
6463;SDS011;3265;42.694;23.282;2023-05-10T01:44:10;8.97;;;7.97;;
6463;SDS011;3265;42.694;23.282;2023-05-10T01:46:43;12.30;;;7.90;;
6463;SDS011;3265;42.694;23.282;2023-05-10T01:49:17;9.37;;;7.47;;
6463;SDS011;3265;42.694;23.282;2023-05-10T01:51:50;8.03;;;6.90;;
6463;SDS011;3265;42.694;23.282;2023-05-10T01:54:20;8.87;;;6.67;;
6463;SDS011;3265;42.694;23.282;2023-05-10T01:56:50;8.67;;;6.63;;
6463;SDS011;3265;42.694;23.282;2023-05-10T01:59:26;7.63;;;6.60;;
6463;SDS011;3265;42.694;23.282;2023-05-10T02:01:57;7.40;;;6.30;;
6463;SDS011;3265;42.694;23.282;2023-05-10T02:04:27;7.90;;;6.80;;
6463;SDS011;3265;42.694;23.282;2023-05-10T02:06:54;8.57;;;7.03;;
6463;SDS011;3265;42.694;23.282;2023-05-10T02:09:23;7.30;;;6.60;;
6463;SDS011;3265;42.694;23.282;2023-05-10T02:11:51;7.00;;;6.30;;
6463;SDS011;3265;42.694;23.282;2023-05-10T02:14:20;7.00;;;6.07;;
6463;SDS011;3265;42.694;23.282;2023-05-10T02:16:49;6.73;;;6.03;;
6463;SDS011;3265;42.694;23.282;2023-05-10T02:19:19;6.20;;;5.60;;
6463;SDS011;3265;42.694;23.282;2023-05-10T02:21:49;6.00;;;5.17;;
6463;SDS011;3265;42.694;23.282;2023-05-10T02:24:17;8.33;;;5.00;;
6463;SDS011;3265;42.694;23.282;2023-05-10T02:26:46;5.93;;;5.33;;
6463;SDS011;3265;42.694;23.282;2023-05-10T02:29:15;6.67;;;5.20;;
6463;SDS011;3265;42.694;23.282;2023-05-10T02:31:43;7.60;;;5.17;;
6463;SDS011;3265;42.694;23.282;2023-05-10T02:34:10;6.90;;;5.50;;
6463;SDS011;3265;42.694;23.282;2023-05-10T02:36:38;7.27;;;5.47;;
6463;SDS011;3265;42.694;23.282;2023-05-10T02:39:07;6.27;;;5.07;;
6463;SDS011;3265;42.694;23.282;2023-05-10T02:41:37;5.87;;;4.97;;
6463;SDS011;3265;42.694;23.282;2023-05-10T02:44:07;7.13;;;5.40;;
6463;SDS011;3265;42.694;23.282;2023-05-10T02:46:35;8.33;;;5.47;;
6463;SDS011;3265;42.694;23.282;2023-05-10T02:49:03;7.30;;;5.90;;
6463;SDS011;3265;42.694;23.282;2023-05-10T02:51:30;6.53;;;5.20;;
6463;SDS011;3265;42.694;23.282;2023-05-10T02:54:01;8.33;;;5.70;;
6463;SDS011;3265;42.694;23.282;2023-05-10T02:56:35;10.17;;;5.30;;
6463;SDS011;3265;42.694;23.282;2023-05-10T02:59:05;10.20;;;5.87;;
6463;SDS011;3265;42.694;23.282;2023-05-10T03:01:32;6.97;;;5.23;;
6463;SDS011;3265;42.694;23.282;2023-05-10T03:03:59;7.77;;;5.63;;
6463;SDS011;3265;42.694;23.282;2023-05-10T03:06:26;6.83;;;5.63;;
6463;SDS011;3265;42.694;23.282;2023-05-10T03:08:53;10.83;;;5.80;;
6463;SDS011;3265;42.694;23.282;2023-05-10T03:11:24;7.50;;;5.63;;
6463;SDS011;3265;42.694;23.282;2023-05-10T03:14:16;9.13;;;5.87;;
6463;SDS011;3265;42.694;23.282;2023-05-10T03:16:52;9.10;;;6.00;;
6463;SDS011;3265;42.694;23.282;2023-05-10T03:19:26;7.27;;;5.43;;
6463;SDS011;3265;42.694;23.282;2023-05-10T03:21:57;7.53;;;5.63;;
6463;SDS011;3265;42.694;23.282;2023-05-10T03:24:29;7.70;;;5.67;;
6463;SDS011;3265;42.694;23.282;2023-05-10T03:26:58;9.00;;;5.90;;
6463;SDS011;3265;42.694;23.282;2023-05-10T03:29:29;8.53;;;5.60;;
6463;SDS011;3265;42.694;23.282;2023-05-10T03:31:57;7.80;;;5.50;;
6463;SDS011;3265;42.694;23.282;2023-05-10T03:34:25;7.33;;;5.63;;
6463;SDS011;3265;42.694;23.282;2023-05-10T03:36:52;8.07;;;6.03;;
6463;SDS011;3265;42.694;23.282;2023-05-10T03:39:19;8.23;;;6.27;;
6463;SDS011;3265;42.694;23.282;2023-05-10T03:41:46;8.50;;;5.80;;
6463;SDS011;3265;42.694;23.282;2023-05-10T03:44:13;6.93;;;5.10;;
6463;SDS011;3265;42.694;23.282;2023-05-10T03:46:41;7.10;;;5.53;;
6463;SDS011;3265;42.694;23.282;2023-05-10T03:49:08;7.83;;;5.80;;
6463;SDS011;3265;42.694;23.282;2023-05-10T03:51:34;8.17;;;6.10;;
6463;SDS011;3265;42.694;23.282;2023-05-10T03:54:01;9.10;;;6.13;;
6463;SDS011;3265;42.694;23.282;2023-05-10T03:56:29;7.47;;;5.70;;
6463;SDS011;3265;42.694;23.282;2023-05-10T03:58:56;7.33;;;5.50;;
6463;SDS011;3265;42.694;23.282;2023-05-10T04:01:23;11.40;;;6.03;;
6463;SDS011;3265;42.694;23.282;2023-05-10T04:03:51;8.43;;;6.20;;
6463;SDS011;3265;42.694;23.282;2023-05-10T04:06:18;9.20;;;6.07;;
6463;SDS011;3265;42.694;23.282;2023-05-10T04:08:45;9.73;;;6.40;;
6463;SDS011;3265;42.694;23.282;2023-05-10T04:11:12;10.40;;;6.43;;
6463;SDS011;3265;42.694;23.282;2023-05-10T04:13:39;7.77;;;6.10;;
6463;SDS011;3265;42.694;23.282;2023-05-10T04:16:06;11.30;;;6.00;;
6463;SDS011;3265;42.694;23.282;2023-05-10T04:18:33;9.37;;;5.90;;
6463;SDS011;3265;42.694;23.282;2023-05-10T04:21:01;10.00;;;6.60;;
6463;SDS011;3265;42.694;23.282;2023-05-10T04:23:28;11.13;;;6.67;;
6463;SDS011;3265;42.694;23.282;2023-05-10T04:25:58;10.60;;;6.33;;
6463;SDS011;3265;42.694;23.282;2023-05-10T04:28:26;9.80;;;6.47;;
6463;SDS011;3265;42.694;23.282;2023-05-10T04:31:00;8.30;;;6.30;;
6463;SDS011;3265;42.694;23.282;2023-05-10T04:33:27;9.60;;;6.83;;
6463;SDS011;3265;42.694;23.282;2023-05-10T04:35:54;9.97;;;6.70;;
6463;SDS011;3265;42.694;23.282;2023-05-10T04:38:22;7.13;;;5.90;;
6463;SDS011;3265;42.694;23.282;2023-05-10T04:40:49;8.07;;;6.17;;
6463;SDS011;3265;42.694;23.282;2023-05-10T04:43:16;10.47;;;6.30;;
6463;SDS011;3265;42.694;23.282;2023-05-10T04:45:43;8.03;;;6.27;;
6463;SDS011;3265;42.694;23.282;2023-05-10T04:48:10;8.33;;;6.30;;
6463;SDS011;3265;42.694;23.282;2023-05-10T04:50:37;12.10;;;6.70;;
6463;SDS011;3265;42.694;23.282;2023-05-10T04:53:05;9.47;;;6.30;;
6463;SDS011;3265;42.694;23.282;2023-05-10T04:55:33;8.13;;;6.50;;
6463;SDS011;3265;42.694;23.282;2023-05-10T04:58:00;8.67;;;6.53;;
6463;SDS011;3265;42.694;23.282;2023-05-10T05:00:27;10.30;;;6.60;;
6463;SDS011;3265;42.694;23.282;2023-05-10T05:02:54;13.80;;;7.17;;
6463;SDS011;3265;42.694;23.282;2023-05-10T05:05:21;8.93;;;6.63;;
6463;SDS011;3265;42.694;23.282;2023-05-10T05:07:48;14.30;;;7.50;;
6463;SDS011;3265;42.694;23.282;2023-05-10T05:10:15;9.43;;;6.90;;
6463;SDS011;3265;42.694;23.282;2023-05-10T05:12:43;9.97;;;7.47;;
6463;SDS011;3265;42.694;23.282;2023-05-10T05:15:13;10.07;;;7.00;;
6463;SDS011;3265;42.694;23.282;2023-05-10T05:17:41;9.00;;;6.97;;
6463;SDS011;3265;42.694;23.282;2023-05-10T05:20:08;12.07;;;7.37;;
6463;SDS011;3265;42.694;23.282;2023-05-10T05:22:36;10.33;;;7.00;;
6463;SDS011;3265;42.694;23.282;2023-05-10T05:25:03;10.80;;;7.33;;
6463;SDS011;3265;42.694;23.282;2023-05-10T05:27:31;9.67;;;7.60;;
6463;SDS011;3265;42.694;23.282;2023-05-10T05:29:59;9.60;;;7.30;;
6463;SDS011;3265;42.694;23.282;2023-05-10T05:32:26;12.60;;;7.90;;
6463;SDS011;3265;42.694;23.282;2023-05-10T05:34:53;10.47;;;7.93;;
6463;SDS011;3265;42.694;23.282;2023-05-10T05:37:20;13.43;;;7.80;;
6463;SDS011;3265;42.694;23.282;2023-05-10T05:39:47;13.43;;;8.13;;
6463;SDS011;3265;42.694;23.282;2023-05-10T05:42:14;10.17;;;7.90;;
6463;SDS011;3265;42.694;23.282;2023-05-10T05:44:42;11.43;;;8.23;;
6463;SDS011;3265;42.694;23.282;2023-05-10T05:47:11;11.60;;;8.53;;
6463;SDS011;3265;42.694;23.282;2023-05-10T05:49:38;15.50;;;9.47;;
6463;SDS011;3265;42.694;23.282;2023-05-10T05:52:05;12.67;;;8.73;;
6463;SDS011;3265;42.694;23.282;2023-05-10T05:54:31;10.67;;;8.33;;
6463;SDS011;3265;42.694;23.282;2023-05-10T05:56:58;13.57;;;9.07;;
6463;SDS011;3265;42.694;23.282;2023-05-10T05:59:26;14.10;;;9.63;;
6463;SDS011;3265;42.694;23.282;2023-05-10T06:01:54;13.77;;;9.33;;
6463;SDS011;3265;42.694;23.282;2023-05-10T06:04:22;14.27;;;9.00;;
6463;SDS011;3265;42.694;23.282;2023-05-10T06:06:49;12.90;;;8.57;;
6463;SDS011;3265;42.694;23.282;2023-05-10T06:09:15;13.53;;;8.80;;
6463;SDS011;3265;42.694;23.282;2023-05-10T06:11:42;13.30;;;9.30;;
6463;SDS011;3265;42.694;23.282;2023-05-10T06:14:09;13.20;;;9.27;;
6463;SDS011;3265;42.694;23.282;2023-05-10T06:16:36;12.50;;;9.30;;
6463;SDS011;3265;42.694;23.282;2023-05-10T06:19:03;14.10;;;9.33;;
6463;SDS011;3265;42.694;23.282;2023-05-10T06:21:31;11.77;;;8.20;;
6463;SDS011;3265;42.694;23.282;2023-05-10T06:23:58;11.40;;;8.77;;
6463;SDS011;3265;42.694;23.282;2023-05-10T06:26:24;15.30;;;8.50;;
6463;SDS011;3265;42.694;23.282;2023-05-10T06:28:51;12.83;;;8.20;;
6463;SDS011;3265;42.694;23.282;2023-05-10T06:31:18;11.57;;;8.70;;
6463;SDS011;3265;42.694;23.282;2023-05-10T06:33:45;14.67;;;8.50;;
6463;SDS011;3265;42.694;23.282;2023-05-10T06:36:12;13.90;;;8.43;;
6463;SDS011;3265;42.694;23.282;2023-05-10T06:38:40;12.40;;;8.33;;
6463;SDS011;3265;42.694;23.282;2023-05-10T06:41:07;16.70;;;8.50;;
6463;SDS011;3265;42.694;23.282;2023-05-10T06:43:34;15.63;;;8.63;;
6463;SDS011;3265;42.694;23.282;2023-05-10T06:46:04;12.90;;;8.73;;
6463;SDS011;3265;42.694;23.282;2023-05-10T06:48:31;11.13;;;8.43;;
6463;SDS011;3265;42.694;23.282;2023-05-10T06:51:00;9.80;;;7.90;;
6463;SDS011;3265;42.694;23.282;2023-05-10T06:53:27;12.80;;;8.40;;
6463;SDS011;3265;42.694;23.282;2023-05-10T06:55:56;12.93;;;8.83;;
6463;SDS011;3265;42.694;23.282;2023-05-10T06:58:23;13.77;;;8.33;;
6463;SDS011;3265;42.694;23.282;2023-05-10T07:00:50;11.90;;;9.00;;
6463;SDS011;3265;42.694;23.282;2023-05-10T07:03:16;11.27;;;8.27;;
6463;SDS011;3265;42.694;23.282;2023-05-10T07:05:43;13.10;;;9.03;;
6463;SDS011;3265;42.694;23.282;2023-05-10T07:08:10;13.90;;;8.57;;
6463;SDS011;3265;42.694;23.282;2023-05-10T07:10:38;11.50;;;8.43;;
6463;SDS011;3265;42.694;23.282;2023-05-10T07:13:06;15.07;;;8.97;;
6463;SDS011;3265;42.694;23.282;2023-05-10T07:15:33;11.73;;;8.80;;
6463;SDS011;3265;42.694;23.282;2023-05-10T07:18:00;12.23;;;8.90;;
6463;SDS011;3265;42.694;23.282;2023-05-10T07:20:27;13.93;;;9.03;;
6463;SDS011;3265;42.694;23.282;2023-05-10T07:22:53;13.97;;;9.07;;
6463;SDS011;3265;42.694;23.282;2023-05-10T07:25:20;15.37;;;9.27;;
6463;SDS011;3265;42.694;23.282;2023-05-10T07:27:47;13.27;;;9.73;;
6463;SDS011;3265;42.694;23.282;2023-05-10T07:30:15;14.67;;;8.90;;
6463;SDS011;3265;42.694;23.282;2023-05-10T07:32:43;12.33;;;8.10;;
6463;SDS011;3265;42.694;23.282;2023-05-10T07:35:10;14.47;;;9.30;;
6463;SDS011;3265;42.694;23.282;2023-05-10T07:37:37;13.80;;;8.53;;
6463;SDS011;3265;42.694;23.282;2023-05-10T07:40:04;13.33;;;9.30;;
6463;SDS011;3265;42.694;23.282;2023-05-10T07:42:32;12.90;;;9.10;;
6463;SDS011;3265;42.694;23.282;2023-05-10T07:44:59;12.37;;;8.63;;
6463;SDS011;3265;42.694;23.282;2023-05-10T07:47:27;12.87;;;8.27;;
6463;SDS011;3265;42.694;23.282;2023-05-10T07:49:53;12.33;;;9.33;;
6463;SDS011;3265;42.694;23.282;2023-05-10T07:52:20;18.00;;;9.90;;
6463;SDS011;3265;42.694;23.282;2023-05-10T07:54:47;12.93;;;9.20;;
6463;SDS011;3265;42.694;23.282;2023-05-10T07:57:14;14.73;;;9.13;;
6463;SDS011;3265;42.694;23.282;2023-05-10T07:59:42;14.60;;;9.20;;
6463;SDS011;3265;42.694;23.282;2023-05-10T08:02:09;15.27;;;10.20;;
6463;SDS011;3265;42.694;23.282;2023-05-10T08:04:38;13.53;;;9.83;;
6463;SDS011;3265;42.694;23.282;2023-05-10T08:07:04;18.67;;;10.33;;
6463;SDS011;3265;42.694;23.282;2023-05-10T08:09:32;18.43;;;10.70;;
6463;SDS011;3265;42.694;23.282;2023-05-10T08:11:59;15.10;;;10.13;;
6463;SDS011;3265;42.694;23.282;2023-05-10T08:14:27;14.07;;;10.90;;
6463;SDS011;3265;42.694;23.282;2023-05-10T08:16:54;13.97;;;10.20;;
6463;SDS011;3265;42.694;23.282;2023-05-10T08:19:21;15.83;;;10.57;;
6463;SDS011;3265;42.694;23.282;2023-05-10T08:21:50;14.27;;;9.93;;
6463;SDS011;3265;42.694;23.282;2023-05-10T08:24:16;12.77;;;9.60;;
6463;SDS011;3265;42.694;23.282;2023-05-10T08:26:43;19.60;;;10.23;;
6463;SDS011;3265;42.694;23.282;2023-05-10T08:29:10;17.57;;;10.17;;
6463;SDS011;3265;42.694;23.282;2023-05-10T08:31:37;15.23;;;10.60;;
6463;SDS011;3265;42.694;23.282;2023-05-10T08:34:04;17.73;;;10.10;;
6463;SDS011;3265;42.694;23.282;2023-05-10T08:36:30;13.43;;;9.90;;
6463;SDS011;3265;42.694;23.282;2023-05-10T08:38:59;13.17;;;10.20;;
6463;SDS011;3265;42.694;23.282;2023-05-10T08:41:26;14.50;;;9.97;;
6463;SDS011;3265;42.694;23.282;2023-05-10T08:43:54;12.47;;;10.00;;
6463;SDS011;3265;42.694;23.282;2023-05-10T08:46:22;14.37;;;10.23;;
6463;SDS011;3265;42.694;23.282;2023-05-10T08:48:49;12.20;;;9.33;;
6463;SDS011;3265;42.694;23.282;2023-05-10T08:51:18;12.63;;;9.53;;
6463;SDS011;3265;42.694;23.282;2023-05-10T08:53:48;13.80;;;10.03;;
6463;SDS011;3265;42.694;23.282;2023-05-10T08:56:18;11.40;;;9.03;;
6463;SDS011;3265;42.694;23.282;2023-05-10T08:58:46;12.90;;;9.13;;
6463;SDS011;3265;42.694;23.282;2023-05-10T09:01:14;13.60;;;10.50;;
6463;SDS011;3265;42.694;23.282;2023-05-10T09:03:42;14.00;;;10.63;;
6463;SDS011;3265;42.694;23.282;2023-05-10T09:06:10;14.83;;;10.43;;
6463;SDS011;3265;42.694;23.282;2023-05-10T09:08:38;15.10;;;10.87;;
6463;SDS011;3265;42.694;23.282;2023-05-10T09:11:07;12.80;;;10.57;;
6463;SDS011;3265;42.694;23.282;2023-05-10T09:13:36;17.27;;;10.40;;
6463;SDS011;3265;42.694;23.282;2023-05-10T09:16:03;13.77;;;10.87;;
6463;SDS011;3265;42.694;23.282;2023-05-10T09:18:31;14.10;;;11.30;;
6463;SDS011;3265;42.694;23.282;2023-05-10T09:20:57;15.30;;;10.83;;
6463;SDS011;3265;42.694;23.282;2023-05-10T09:23:24;15.17;;;10.57;;
6463;SDS011;3265;42.694;23.282;2023-05-10T09:26:03;12.80;;;9.97;;
6463;SDS011;3265;42.694;23.282;2023-05-10T09:28:31;12.90;;;10.47;;
6463;SDS011;3265;42.694;23.282;2023-05-10T09:31:00;15.30;;;9.83;;
6463;SDS011;3265;42.694;23.282;2023-05-10T09:33:27;15.13;;;10.20;;
6463;SDS011;3265;42.694;23.282;2023-05-10T09:35:54;15.87;;;10.57;;
6463;SDS011;3265;42.694;23.282;2023-05-10T09:38:21;16.53;;;9.97;;
6463;SDS011;3265;42.694;23.282;2023-05-10T09:40:51;13.93;;;10.17;;
6463;SDS011;3265;42.694;23.282;2023-05-10T09:43:20;13.50;;;10.50;;
6463;SDS011;3265;42.694;23.282;2023-05-10T09:45:47;15.20;;;11.53;;
6463;SDS011;3265;42.694;23.282;2023-05-10T09:48:17;19.57;;;11.37;;
6463;SDS011;3265;42.694;23.282;2023-05-10T09:50:44;15.60;;;10.70;;
6463;SDS011;3265;42.694;23.282;2023-05-10T09:53:10;13.50;;;10.17;;
6463;SDS011;3265;42.694;23.282;2023-05-10T09:55:41;16.00;;;11.40;;
6463;SDS011;3265;42.694;23.282;2023-05-10T09:58:10;16.13;;;10.10;;
6463;SDS011;3265;42.694;23.282;2023-05-10T10:00:37;15.87;;;11.00;;
6463;SDS011;3265;42.694;23.282;2023-05-10T10:03:06;15.20;;;10.83;;
6463;SDS011;3265;42.694;23.282;2023-05-10T10:05:41;13.43;;;10.70;;
6463;SDS011;3265;42.694;23.282;2023-05-10T10:08:09;13.63;;;11.30;;
6463;SDS011;3265;42.694;23.282;2023-05-10T10:10:38;13.07;;;10.37;;
6463;SDS011;3265;42.694;23.282;2023-05-10T10:13:06;15.73;;;10.13;;
6463;SDS011;3265;42.694;23.282;2023-05-10T10:15:34;15.93;;;10.40;;
6463;SDS011;3265;42.694;23.282;2023-05-10T10:18:02;16.80;;;10.47;;
6463;SDS011;3265;42.694;23.282;2023-05-10T10:20:29;17.97;;;10.43;;
6463;SDS011;3265;42.694;23.282;2023-05-10T10:23:00;13.23;;;9.73;;
6463;SDS011;3265;42.694;23.282;2023-05-10T10:25:27;12.87;;;9.77;;
6463;SDS011;3265;42.694;23.282;2023-05-10T10:28:01;13.93;;;10.00;;
6463;SDS011;3265;42.694;23.282;2023-05-10T10:30:39;13.03;;;10.10;;
6463;SDS011;3265;42.694;23.282;2023-05-10T10:33:23;13.93;;;9.53;;
6463;SDS011;3265;42.694;23.282;2023-05-10T10:36:00;16.53;;;10.73;;
6463;SDS011;3265;42.694;23.282;2023-05-10T10:38:37;14.20;;;9.70;;
6463;SDS011;3265;42.694;23.282;2023-05-10T10:41:27;13.47;;;9.27;;
6463;SDS011;3265;42.694;23.282;2023-05-10T10:47:25;13.13;;;9.10;;
6463;SDS011;3265;42.694;23.282;2023-05-10T10:50:04;13.17;;;8.03;;
6463;SDS011;3265;42.694;23.282;2023-05-10T10:52:37;11.03;;;8.13;;
6463;SDS011;3265;42.694;23.282;2023-05-10T10:55:08;11.67;;;8.83;;
6463;SDS011;3265;42.694;23.282;2023-05-10T10:57:46;12.13;;;9.10;;
6463;SDS011;3265;42.694;23.282;2023-05-10T11:03:03;11.43;;;8.57;;
6463;SDS011;3265;42.694;23.282;2023-05-10T11:08:11;10.80;;;8.53;;
6463;SDS011;3265;42.694;23.282;2023-05-10T11:10:50;15.10;;;8.87;;
6463;SDS011;3265;42.694;23.282;2023-05-10T11:13:26;13.80;;;8.53;;
6463;SDS011;3265;42.694;23.282;2023-05-10T11:15:55;12.73;;;8.00;;
6463;SDS011;3265;42.694;23.282;2023-05-10T11:18:24;10.57;;;7.63;;
6463;SDS011;3265;42.694;23.282;2023-05-10T11:20:52;11.67;;;7.77;;
6463;SDS011;3265;42.694;23.282;2023-05-10T11:23:28;11.40;;;8.03;;
6463;SDS011;3265;42.694;23.282;2023-05-10T11:25:58;13.50;;;8.63;;
6463;SDS011;3265;42.694;23.282;2023-05-10T11:28:26;12.83;;;8.00;;
6463;SDS011;3265;42.694;23.282;2023-05-10T11:30:53;11.00;;;7.97;;
6463;SDS011;3265;42.694;23.282;2023-05-10T11:33:21;11.67;;;8.17;;
6463;SDS011;3265;42.694;23.282;2023-05-10T11:35:47;10.73;;;7.83;;
6463;SDS011;3265;42.694;23.282;2023-05-10T11:38:14;11.53;;;7.80;;
6463;SDS011;3265;42.694;23.282;2023-05-10T11:40:44;10.33;;;8.07;;
6463;SDS011;3265;42.694;23.282;2023-05-10T11:43:13;10.80;;;8.07;;
6463;SDS011;3265;42.694;23.282;2023-05-10T11:45:43;13.23;;;7.67;;
6463;SDS011;3265;42.694;23.282;2023-05-10T11:48:12;11.83;;;7.57;;
6463;SDS011;3265;42.694;23.282;2023-05-10T11:50:54;13.07;;;7.67;;
6463;SDS011;3265;42.694;23.282;2023-05-10T11:53:23;10.67;;;6.93;;
6463;SDS011;3265;42.694;23.282;2023-05-10T11:55:52;12.40;;;7.30;;
6463;SDS011;3265;42.694;23.282;2023-05-10T11:58:32;11.13;;;7.57;;
6463;SDS011;3265;42.694;23.282;2023-05-10T12:01:04;9.70;;;7.93;;
6463;SDS011;3265;42.694;23.282;2023-05-10T12:03:39;15.33;;;8.50;;
6463;SDS011;3265;42.694;23.282;2023-05-10T12:09:06;11.37;;;8.40;;
6463;SDS011;3265;42.694;23.282;2023-05-10T12:11:36;12.03;;;8.37;;
6463;SDS011;3265;42.694;23.282;2023-05-10T12:14:18;11.50;;;8.20;;
6463;SDS011;3265;42.694;23.282;2023-05-10T12:16:59;13.37;;;8.60;;
6463;SDS011;3265;42.694;23.282;2023-05-10T12:19:38;13.40;;;8.70;;
6463;SDS011;3265;42.694;23.282;2023-05-10T12:22:14;14.73;;;8.50;;
6463;SDS011;3265;42.694;23.282;2023-05-10T12:24:50;14.43;;;8.73;;
6463;SDS011;3265;42.694;23.282;2023-05-10T12:27:17;14.83;;;9.50;;
6463;SDS011;3265;42.694;23.282;2023-05-10T12:29:46;10.70;;;8.83;;
6463;SDS011;3265;42.694;23.282;2023-05-10T12:32:36;13.87;;;9.10;;
6463;SDS011;3265;42.694;23.282;2023-05-10T12:35:04;12.97;;;8.33;;
6463;SDS011;3265;42.694;23.282;2023-05-10T12:37:31;11.17;;;8.23;;
6463;SDS011;3265;42.694;23.282;2023-05-10T12:40:04;12.67;;;9.03;;
6463;SDS011;3265;42.694;23.282;2023-05-10T12:42:33;16.80;;;8.97;;
6463;SDS011;3265;42.694;23.282;2023-05-10T12:45:02;15.00;;;8.70;;
6463;SDS011;3265;42.694;23.282;2023-05-10T12:47:32;13.07;;;9.03;;
6463;SDS011;3265;42.694;23.282;2023-05-10T12:50:08;12.67;;;8.57;;
6463;SDS011;3265;42.694;23.282;2023-05-10T12:52:38;15.57;;;8.57;;
6463;SDS011;3265;42.694;23.282;2023-05-10T12:55:23;11.83;;;9.00;;
6463;SDS011;3265;42.694;23.282;2023-05-10T12:57:52;17.70;;;9.30;;
6463;SDS011;3265;42.694;23.282;2023-05-10T13:00:23;14.17;;;9.53;;
6463;SDS011;3265;42.694;23.282;2023-05-10T13:02:50;13.00;;;9.20;;
6463;SDS011;3265;42.694;23.282;2023-05-10T13:05:18;15.73;;;9.53;;
6463;SDS011;3265;42.694;23.282;2023-05-10T13:07:45;14.40;;;9.37;;
6463;SDS011;3265;42.694;23.282;2023-05-10T13:10:11;17.80;;;10.70;;
6463;SDS011;3265;42.694;23.282;2023-05-10T13:12:38;14.53;;;8.73;;
6463;SDS011;3265;42.694;23.282;2023-05-10T13:15:05;11.97;;;9.17;;
6463;SDS011;3265;42.694;23.282;2023-05-10T13:17:34;13.93;;;9.37;;
6463;SDS011;3265;42.694;23.282;2023-05-10T13:20:04;16.67;;;9.43;;
6463;SDS011;3265;42.694;23.282;2023-05-10T13:22:31;14.00;;;8.83;;
6463;SDS011;3265;42.694;23.282;2023-05-10T13:24:58;13.50;;;9.13;;
6463;SDS011;3265;42.694;23.282;2023-05-10T13:27:25;17.30;;;10.17;;
6463;SDS011;3265;42.694;23.282;2023-05-10T13:29:52;14.03;;;9.90;;
6463;SDS011;3265;42.694;23.282;2023-05-10T13:32:19;13.90;;;10.63;;
6463;SDS011;3265;42.694;23.282;2023-05-10T13:34:48;15.80;;;9.40;;
6463;SDS011;3265;42.694;23.282;2023-05-10T13:37:15;13.90;;;9.13;;
6463;SDS011;3265;42.694;23.282;2023-05-10T13:39:42;13.00;;;8.50;;
6463;SDS011;3265;42.694;23.282;2023-05-10T13:42:09;10.83;;;8.90;;
6463;SDS011;3265;42.694;23.282;2023-05-10T13:44:35;14.43;;;8.50;;
6463;SDS011;3265;42.694;23.282;2023-05-10T13:47:03;10.97;;;7.83;;
6463;SDS011;3265;42.694;23.282;2023-05-10T13:49:30;9.73;;;7.77;;
6463;SDS011;3265;42.694;23.282;2023-05-10T13:51:59;11.93;;;7.93;;
6463;SDS011;3265;42.694;23.282;2023-05-10T13:54:31;13.87;;;8.13;;
6463;SDS011;3265;42.694;23.282;2023-05-10T13:56:57;10.43;;;8.07;;
6463;SDS011;3265;42.694;23.282;2023-05-10T13:59:25;13.63;;;7.90;;
6463;SDS011;3265;42.694;23.282;2023-05-10T14:01:51;16.50;;;9.67;;
6463;SDS011;3265;42.694;23.282;2023-05-10T14:04:21;13.43;;;9.03;;
6463;SDS011;3265;42.694;23.282;2023-05-10T14:06:48;13.30;;;8.40;;
6463;SDS011;3265;42.694;23.282;2023-05-10T14:09:16;13.87;;;9.23;;
6463;SDS011;3265;42.694;23.282;2023-05-10T14:11:43;12.50;;;8.90;;
6463;SDS011;3265;42.694;23.282;2023-05-10T14:14:10;12.27;;;8.77;;
6463;SDS011;3265;42.694;23.282;2023-05-10T14:16:41;11.97;;;9.10;;
6463;SDS011;3265;42.694;23.282;2023-05-10T14:19:09;13.63;;;9.90;;
6463;SDS011;3265;42.694;23.282;2023-05-10T14:21:36;15.93;;;9.37;;
6463;SDS011;3265;42.694;23.282;2023-05-10T14:24:03;13.83;;;10.30;;
6463;SDS011;3265;42.694;23.282;2023-05-10T14:26:33;13.27;;;8.80;;
6463;SDS011;3265;42.694;23.282;2023-05-10T14:29:00;14.93;;;8.67;;
6463;SDS011;3265;42.694;23.282;2023-05-10T14:31:27;11.33;;;9.07;;
6463;SDS011;3265;42.694;23.282;2023-05-10T14:33:55;14.47;;;9.10;;
6463;SDS011;3265;42.694;23.282;2023-05-10T14:36:22;15.73;;;9.03;;
6463;SDS011;3265;42.694;23.282;2023-05-10T14:38:49;13.57;;;8.70;;
6463;SDS011;3265;42.694;23.282;2023-05-10T14:41:15;14.73;;;9.53;;
6463;SDS011;3265;42.694;23.282;2023-05-10T14:43:44;14.40;;;9.00;;
6463;SDS011;3265;42.694;23.282;2023-05-10T14:46:11;13.40;;;9.20;;
6463;SDS011;3265;42.694;23.282;2023-05-10T14:48:37;14.17;;;8.37;;
6463;SDS011;3265;42.694;23.282;2023-05-10T14:51:04;12.50;;;8.47;;
6463;SDS011;3265;42.694;23.282;2023-05-10T14:53:36;12.00;;;8.33;;
6463;SDS011;3265;42.694;23.282;2023-05-10T14:56:06;15.97;;;8.53;;
6463;SDS011;3265;42.694;23.282;2023-05-10T14:58:36;11.60;;;8.50;;
6463;SDS011;3265;42.694;23.282;2023-05-10T15:01:04;13.40;;;8.20;;
6463;SDS011;3265;42.694;23.282;2023-05-10T15:03:31;14.87;;;8.43;;
6463;SDS011;3265;42.694;23.282;2023-05-10T15:05:58;16.17;;;8.60;;
6463;SDS011;3265;42.694;23.282;2023-05-10T15:08:25;10.27;;;8.47;;
6463;SDS011;3265;42.694;23.282;2023-05-10T15:10:52;10.87;;;8.80;;
6463;SDS011;3265;42.694;23.282;2023-05-10T15:13:20;10.03;;;8.20;;
6463;SDS011;3265;42.694;23.282;2023-05-10T15:15:47;12.53;;;8.67;;
6463;SDS011;3265;42.694;23.282;2023-05-10T15:18:16;11.67;;;8.83;;